Hoppa till innehåll

METAR väder och rapporter - RJTT

Nedan listas information från vald flygplats. Andra METARs finns längre ned på sidan. Kontakta oss om någon saknas eller skriv in egen ICAO-kod.

Coded METAR: 2022/05/17 13:30 RJTT 171330Z VRB01KT 9999 FEW015 BKN/// 16/15 Q1017 NOSIG

Weather Report @ RJTT

Issued: 17th May 2022 at 15:30 CEST

Wind: variable light air at 1 knots (1 mph, 2 kph, 1 mps, Force 1)
Visibility: 10km or more
Cloud: a few clouds at 1500 feet
Cloud: broken at ///00 feet
Temperature: 61F / 16C
Dewpoint: 59F / 15C
Humidity: 94%
Pressure: 1017 hPa
Weather: no significant change expected

Coded TAF: 2022/05/17 12:30 TAF RJTT 171106Z 1712/1818 36004KT 9999 FEW015 BKN030 BECMG 1800/1803 10006KT BECMG 1803/1806 19012KT BECMG 1812/1815 30004KT

Weather Forecast @ RJTT

Issued: 17th May 2022 at 14:30 CEST

Valid : 17th May 14:00 until 18th May 20:00 CEST

14:00 CEST
Wind: light breeze from the North (360 degrees) at 4 knots (5 mph, 7 kph, 2 mps, Force 2)
Visibility: 10km or more
Cloud: a few clouds at 1500 feet
Cloud: broken at 3000 feet

02:00 CEST to 05:00 CEST
becoming:

Wind: light breeze from the East (100 degrees) at 6 knots (7 mph, 11 kph, 3 mps, Force 2)

05:00 CEST to 08:00 CEST
becoming:

Wind: moderate breeze from the South (190 degrees) at 12 knots (14 mph, 22 kph, 6 mps, Force 4)

14:00 CEST to 17:00 CEST
becoming:

Wind: light breeze from West-Northwest (300 degrees) at 4 knots (5 mph, 7 kph, 2 mps, Force 2)

Internet delivery of weather data is not secure or reliable enough for operational purposes.

NEVER RELY ON THE OUTPUT OF THIS SCRIPT TO MAKE DECISIONS ABOUT ANYTHING IN WHICH THE WEATHER FORECAST AND ITS INTERPRETATION COULD BE AN ISSUE OF SAFETY.

Andra intressanta METARs

Klicka på önskad rubrik nedan för att visa nuvarande väder för den platsen.

Avstånd från stationen: NO 27kmESGG - Göteborg (Landvetter)
Uppdaterad: 2022-05-17 15:50
 Vind från NO
Vind: NO 11 km/h
Temperatur: 18°C
Daggpunkt: -4°C
Luftfuktighet: 22%
Barometer: 1024 hPa
Summering: Klart
Sikt: mer än 10 km
2022/05/17 13:50 ESGG 171350Z 04006KT 350V070 CAVOK 18/M04 Q1024
Klart
Klart
  Visa detaljer för Göteborg (Landvetter)
Avstånd från stationen: N 28kmESGP - Göteborg (Säve)
Uppdaterad: 2022-05-17 15:50
 Vind från NNO
Vind: NNO 17 km/h
Temperatur: 18°C
Daggpunkt: -5°C
Luftfuktighet: 21%
Barometer: 1024 hPa
Summering: Klart
Sikt: mer än 10 km
2022/05/17 13:50 ESGP 171350Z 03009KT 350V060 CAVOK 18/M05 Q1024
Klart
Klart
  Visa detaljer för Göteborg (Säve)
Avstånd från stationen: NO 419kmESSA - Stockholm (Arlanda)
Uppdaterad: 2022-05-17 15:50
 Vind från N
Vind: N 15 km/h
Temperatur: 11°C
Daggpunkt: -2°C
Luftfuktighet: 41%
Barometer: 1026 hPa
Summering: Klart
Sikt: mer än 10 km
2022/05/17 13:50 ESSA 171350Z 36008KT 320V040 CAVOK 11/M02 Q1026 NOSIG
Klart
Klart
  Visa detaljer för Stockholm (Arlanda)
Avstånd från stationen: ONO 404kmESSB - Stockholm (Bromma)
Uppdaterad: 2022-05-17 15:50
 Vind från NNV
Vind: NNV 15 km/h
Temperatur: 12°C
Daggpunkt: -2°C
Luftfuktighet: 38%
Barometer: 1026 hPa
Summering: Klart
Sikt: mer än 10 km
2022/05/17 13:50 ESSB 171350Z 33008KT CAVOK 12/M02 Q1026
Klart
Klart
  Visa detaljer för Stockholm (Bromma)
Avstånd från stationen: ONO 323kmESKN - Stockholm (Skavsta)
Uppdaterad: 2022-05-17 15:50
 Vind från NV
Vind: NV 11 km/h
Temperatur: 13°C
Daggpunkt: -3°C
Luftfuktighet: 33%
Barometer: 1026 hPa
Summering: Klart
Sikt: mer än 10 km
2022/05/17 13:50 ESKN 171350Z 31006KT 250V350 CAVOK 13/M03 Q1026
Klart
Klart
  Visa detaljer för Stockholm (Skavsta)
Avstånd från stationen: SSO 238kmESMS - Malmö flygplats (Sturup)
Uppdaterad: 2022-05-17 15:50
 Vind från O
Vind: O 22 km/h
Temperatur: 16°C
Daggpunkt: 1°C
Luftfuktighet: 36%
Barometer: 1024 hPa
Summering: Klart
Sikt: mer än 10 km
2022/05/17 13:50 ESMS 171350Z 09012KT CAVOK 16/01 Q1024
Klart
Klart
  Visa detaljer för Malmö flygplats (Sturup)
Avstånd från stationen: O 382kmESSV - Visby flygplats
Uppdaterad: 2022-05-17 15:50
 Vind från N
Vind: N 19 km/h
Temperatur: 11°C
Daggpunkt: -1°C
Luftfuktighet: 44%
Barometer: 1026 hPa
Summering: Klart
Sikt: mer än 10 km
2022/05/17 13:50 ESSV 171350Z 36010KT CAVOK 11/M01 Q1026
Klart
Klart
  Visa detaljer för Visby flygplats
Avstånd från stationen: NNO 92kmESGT - Trollhättan
Uppdaterad: 2022-05-17 15:50
 Vind från NNO
Vind: NNO 19 km/h
Temperatur: 14°C
Daggpunkt: -5°C
Luftfuktighet: 27%
Barometer: 1026 hPa
Summering: Klart
Sikt: mer än 10 km
2022/05/17 13:50 ESGT 171350Z 02010KT CAVOK 14/M05 Q1026
Klart
Klart
  Visa detaljer för Trollhättan
Avstånd från stationen: ONO 129kmESGJ - Jönköpings flygplats
Uppdaterad: 2022-05-17 15:50
 Vind från NNO
Vind: NNO 17 km/h
Temperatur: 14°C
Daggpunkt: -3°C
Luftfuktighet: 31%
Barometer: 1025 hPa
Summering: Klart
Sikt: mer än 10 km
2022/05/17 13:50 ESGJ 171350Z 03009KT CAVOK 14/M03 Q1025
Klart
Klart
  Visa detaljer för Jönköpings flygplats
Avstånd från stationen: NNO 229kmESOK - Karlstad
Uppdaterad: 2022-05-17 15:50
 Vind från varierande
Vind: varierande 7 km/h
Temperatur: 15°C
Daggpunkt: -4°C
Luftfuktighet: 27%
Barometer: 1025 hPa
Summering: Klart
Sikt: mer än 10 km
2022/05/17 13:50 ESOK 171350Z VRB04KT CAVOK 15/M04 Q1025
Klart
Klart
  Visa detaljer för Karlstad
Avstånd från stationen: N 643kmESNZ - Östersund (Frösön)
Uppdaterad: 2022-05-17 15:50
 Vind från calm
Vind: Vindstilla
Temperatur: 12°C
Daggpunkt: -8°C
Luftfuktighet: 24%
Barometer: 1023 hPa
Summering: Klart
Sikt: mer än 10 km
2022/05/17 13:50 ESNZ 171350Z 00000KT CAVOK 12/M08 Q1023
Klart
Klart
  Visa detaljer för Östersund (Frösön)
Avstånd från stationen: SSO 216kmEKCH - Köpenhamn (Kastrup)
Uppdaterad: 2022-05-17 15:50
 Vind från SSO
Vind: SSO 19 km/h
Temperatur: 17°C
Daggpunkt: 1°C
Luftfuktighet: 34%
Barometer: 1024 hPa
Moln: Klart
Sikt: 10 km
2022/05/17 13:50 EKCH 171350Z AUTO 15010KT 9999 NCD 17/01 Q1024 NOSIG
Klart
Klart
  Visa detaljer för Köpenhamn (Kastrup)
Avstånd från stationen: SV 263kmEKBI - Billund Airport
Uppdaterad: 2022-05-17 15:50
 Vind från O
Vind: O 24 km/h
Temperatur: 19°C
Daggpunkt: 6°C
Luftfuktighet: 43%
Barometer: 1022 hPa
Moln: Klart
Sikt: 10 km
2022/05/17 13:50 EKBI 171350Z AUTO 10013KT 9999 NCD 19/06 Q1022
Klart
Klart
  Visa detaljer för Billund Airport
Avstånd från stationen: N 302kmENGM - Oslo (Gardermoen)
Uppdaterad: 2022-05-17 15:50
 Vind från SSV
Vind: SSV 9 km/h
Temperatur: 16°C
Daggpunkt: -3°C
Luftfuktighet: 27%
Barometer: 1025 hPa
Summering: Klart
Sikt: mer än 10 km
2022/05/17 13:50 ENGM 171350Z 21005KT 170V250 CAVOK 16/M03 Q1025 NOSIG
Klart
Klart
  Visa detaljer för Oslo (Gardermoen)
Avstånd från stationen: NO 540kmEFMA - Mariehamn / Åland
Uppdaterad: 2022-05-17 15:50
 Vind från NNV
Vind: NNV 28 km/h
Temperatur: 8°C
Vindavkylning: 4°C
Daggpunkt: 0°C
Luftfuktighet: 57%
Barometer: 1026 hPa
Moln: Några få moln
Sikt: 10 km
Molninformation: Några få moln 823 m
2022/05/17 13:50 EFMA 171350Z AUTO 34015KT 310V010 9999 FEW027 08/00 Q1026
Några få moln
Några få moln
  Visa detaljer för Mariehamn / Åland
Avstånd från stationen: S 558kmEDDT - Berlin (Tegel), Germany
Uppdaterad: 2020-11-09 07:50
Ej aktuell
 Vind från O
Vind: O 11 km/h
Temperatur: 6°C
Vindavkylning: 4°C
Daggpunkt: 5°C
Luftfuktighet: 93%
Barometer: 1027 hPa
Summering: Dimmigt
Moln: Genommulet
Sikt: 3 km
Molninformation: Genommulet 91 m
2020/11/09 06:50 EDDT 090650Z 09006KT 050V120 3000 BR OVC003 06/05 Q1027
Dimmigt, Genommulet
Dimmigt
Genommulet
  Visa detaljer för Berlin (Tegel), Germany
Avstånd från stationen: SV 737kmEHAM - Amsterdam (Schiphol)
Uppdaterad: 2022-05-17 15:55
 Vind från OSO
Vind: OSO 11 km/h
Temperatur: 23°C
Daggpunkt: 15°C
Luftfuktighet: 61%
Barometer: 1019 hPa
Moln: Några få moln
Sikt: 10 km
Molninformation: Några få moln 1158 m
2022/05/17 13:55 EHAM 171355Z 11006KT 050V190 9999 FEW038 23/15 Q1019 NOSIG
Några få moln
Några få moln
  Visa detaljer för Amsterdam (Schiphol)
Avstånd från stationen: ONO 808kmEFHK - Helsingfors (Vantaa)
Uppdaterad: 2022-05-17 15:50
 Vind från N
Vind: N 22 km/h
Temperatur: 11°C
Daggpunkt: 0°C
Luftfuktighet: 47%
Barometer: 1020 hPa
Moln: Övervägande molnigt
Sikt: 10 km
Molninformation: Övervägande molnigt 1280 m
2022/05/17 13:50 EFHK 171350Z 36012KT 9999 BKN042 11/00 Q1020 NOSIG
Övervägande molnigt
Övervägande molnigt
  Visa detaljer för Helsingfors (Vantaa)
Avstånd från stationen: SSV 537kmEDDW - Bremen
Uppdaterad: 2022-05-17 15:50
 Vind från V
Vind: V 11 km/h
Temperatur: 23°C
Daggpunkt: 10°C
Luftfuktighet: 44%
Barometer: 1020 hPa
Summering: Klart
Sikt: mer än 10 km
2022/05/17 13:50 EDDW 171350Z AUTO 26006KT 220V280 CAVOK 23/10 Q1020 BECMG 33005KT
Klart
Klart
  Visa detaljer för Bremen
Avstånd från stationen: SSV 861kmEDDF - Frankfurt am Main
Uppdaterad: 2022-05-17 15:50
 Vind från varierande
Vind: varierande 9 km/h
Temperatur: 25°C
Daggpunkt: 10°C
Luftfuktighet: 39%
Barometer: 1020 hPa
Summering: Klart
Sikt: mer än 10 km
2022/05/17 13:50 EDDF 171350Z VRB05KT CAVOK 25/10 Q1020 NOSIG
Klart
Klart
  Visa detaljer för Frankfurt am Main
Avstånd från stationen: SV 880kmEBBR - Bryssel international
Uppdaterad: 2022-05-17 15:50
 Vind från SSV
Vind: SSV 19 km/h
Temperatur: 27°C
Daggpunkt: 6°C
Luftfuktighet: 26%
Barometer: 1018 hPa
Summering: Klart
Sikt: mer än 10 km
2022/05/17 13:50 EBBR 171350Z 21010KT CAVOK 27/06 Q1018 NOSIG
Klart
Klart
  Visa detaljer för Bryssel international
Avstånd från stationen: SV 738kmEHAM - Amsterdam (Schiphol)
Uppdaterad: 2022-05-17 15:55
 Vind från OSO
Vind: OSO 11 km/h
Temperatur: 23°C
Daggpunkt: 15°C
Luftfuktighet: 61%
Barometer: 1019 hPa
Moln: Några få moln
Sikt: 10 km
Molninformation: Några få moln 1158 m
2022/05/17 13:55 EHAM 171355Z 11006KT 050V190 9999 FEW038 23/15 Q1019 NOSIG
Några få moln
Några få moln
  Visa detaljer för Amsterdam (Schiphol)
Avstånd från stationen: SV 1044kmEGLL - London (Heathrow)
Uppdaterad: 2022-05-17 15:50
 Vind från SSO
Vind: SSO 22 km/h
Temperatur: 25°C
Daggpunkt: 12°C
Luftfuktighet: 44%
Barometer: 1016 hPa
Moln: Några få moln
Sikt: 10 km
Molninformation: Några få moln 1494 m
2022/05/17 13:50 EGLL 171350Z AUTO 16012KT 120V190 9999 FEW049 25/12 Q1016
Några få moln
Några få moln
  Visa detaljer för London (Heathrow)
Avstånd från stationen: SV 1132kmLFPG - Paris (Charles de Gaulle)
Uppdaterad: 2022-05-17 16:00
 Vind från SSO
Vind: SSO 13 km/h
Temperatur: 28°C
Värmeindex: 27°C
Daggpunkt: 13°C
Luftfuktighet: 40%
Barometer: 1018 hPa
Summering: Klart
Sikt: mer än 10 km
2022/05/17 14:00 LFPG 171400Z 16007KT 080V240 CAVOK 28/13 Q1018 NOSIG
Klart
Klart
  Visa detaljer för Paris (Charles de Gaulle)
Avstånd från stationen: SSV 1142kmLSZH - Zürich Airport
Uppdaterad: 2022-05-17 15:50
 Vind från ONO
Vind: ONO 7 km/h
Temperatur: 25°C
Daggpunkt: 11°C
Luftfuktighet: 42%
Barometer: 1020 hPa
Moln: Några få moln
Sikt: 10 km
Molninformation: Några få moln 1829 m
2022/05/17 13:50 LSZH 171350Z 06004KT 350V140 9999 FEW060 25/11 Q1020 NOSIG
Några få moln
Några få moln
  Visa detaljer för Zürich Airport
Avstånd från stationen: S 1749kmLIRF - Rome Airport (Fiumicino - Leonardo da Vinci)
Uppdaterad: 2022-05-17 15:50
 Vind från V
Vind: V 20 km/h
Temperatur: 24°C
Daggpunkt: 15°C
Luftfuktighet: 57%
Barometer: 1017 hPa
Summering: Klart
Sikt: mer än 10 km
2022/05/17 13:50 LIRF 171350Z 28011KT CAVOK 24/15 Q1017 NOSIG
Klart
Klart
  Visa detaljer för Rome Airport (Fiumicino - Leonardo da Vinci)
Avstånd från stationen: SO 2679kmLTAI - Antalya
Uppdaterad: 2022-05-17 15:50
 Vind från OSO
Vind: OSO 11 km/h
Temperatur: 24°C
Daggpunkt: 18°C
Luftfuktighet: 69%
Barometer: 1013 hPa
Moln: Några få moln
Sikt: 10 km
Molninformation: Några få moln 610 m
2022/05/17 13:50 LTAI 171350Z 12006KT 090V150 9999 FEW020CB 24/18 Q1013 TEMPO -TSRA
Några få moln
Några få moln
  Visa detaljer för Antalya
Avstånd från stationen: VSV 6074kmKJFK - New Your (JFK)
Uppdaterad: 2022-05-17 15:51
 Vind från VSV
Vind: VSV 24 km/h
Temperatur: 19°C
Daggpunkt: 11°C
Luftfuktighet: 60%
Barometer: 1008.8 hPa
Moln: Några få moln
Sikt: 16 km
Molninformation: Några få moln 1524 m
Några få moln 6706 m
2022/05/17 13:51 KJFK 171351Z 24013KT 10SM FEW050 FEW220 19/11 A2979 RMK AO2 SLP086 T01940111
Några få moln
Några få moln
  Visa detaljer för New Your (JFK)
Avstånd från stationen: VSV 8848kmKLAX - Los Angeles International Airport
Uppdaterad: 2022-05-17 15:53
 Vind från SO
Vind: SO 11 km/h
Temperatur: 16°C
Daggpunkt: 12°C
Luftfuktighet: 77%
Barometer: 1014.9 hPa
Moln: Genommulet
Sikt: 13 km
Molninformation: Några få moln 274 m
Genommulet 518 m
2022/05/17 13:53 KLAX 171353Z 13006KT 8SM FEW009 OVC017 16/12 A2997 RMK AO2 SLP146 T01610117
Genommulet
Genommulet
  Visa detaljer för Los Angeles International Airport
Avstånd från stationen: SO 4968kmOMDB - Dubai International Airport
Uppdaterad: 2022-05-17 16:00
 Vind från VNV
Vind: VNV 17 km/h
Temperatur: 33°C
Värmeindex: 36°C
Daggpunkt: 21°C
Luftfuktighet: 49%
Barometer: 1001 hPa
Summering: Widespread Dust
Moln: Delvis molnigt
Sikt: 5 km
2022/05/17 14:00 OMDB 171400Z 29009KT 5000 DU NSC 33/21 Q1001 BECMG 2000
Widespread dust, Delvis molnigt
Widespread dust
Delvis molnigt
  Visa detaljer för Dubai International Airport
Avstånd från stationen: OSO 8570kmRJTT - Tokyo International Airport
Uppdaterad: 2022-05-17 15:30
 Vind från varierande
Vind: varierande 2 km/h
Moln: Några få moln
Sikt: 10 km
Molninformation: Några få moln 457 m
2022/05/17 13:30 RJTT 171330Z VRB01KT 9999 FEW015 BKN/// 16/15 Q1017 NOSIG
Några få moln
Några få moln
  Visa detaljer för Tokyo International Airport
Avstånd från stationen: OSO 7125kmZBAA - Peking (Beijing Capital)
Uppdaterad: 2022-05-17 15:30
 Vind från N
Vind: N 7 km/h
Temperatur: 18°C
Daggpunkt: 12°C
Luftfuktighet: 68%
Barometer: 1006 hPa
Summering: Klart
Sikt: mer än 10 km
2022/05/17 13:30 ZBAA 171330Z 36002MPS CAVOK 18/12 Q1006 NOSIG
Klart
Klart
  Visa detaljer för Peking (Beijing Capital)
VÄDER KURIOSA -  LightningLightning can strike the same place twice and sometimes many times. The Empire State Building in New York City is struck an average of 23 times a year. During one thunderstorm it was struck 8 times in 24 minutes.